createdAt,value
2019-05-20T00:00:08.679Z,17.00
2019-05-20T00:02:37.631Z,18.27
2019-05-20T00:05:06.913Z,17.87
2019-05-20T00:07:36.201Z,17.83
2019-05-20T00:10:05.715Z,16.60
2019-05-20T00:12:34.946Z,17.47
2019-05-20T00:15:03.933Z,17.30
2019-05-20T00:17:32.956Z,17.17
2019-05-20T00:20:02.014Z,17.53
2019-05-20T00:22:31.058Z,18.20
2019-05-20T00:25:00.127Z,18.57
2019-05-20T00:27:29.146Z,18.30
2019-05-20T00:29:58.210Z,16.53
2019-05-20T00:32:40.322Z,15.97
2019-05-20T00:34:58.161Z,17.13
2019-05-20T00:37:27.192Z,17.83
2019-05-20T00:39:57.044Z,17.30
2019-05-20T00:42:26.397Z,20.00
2019-05-20T00:44:55.604Z,18.97
2019-05-20T00:47:24.588Z,17.67
2019-05-20T00:49:53.562Z,18.40
2019-05-20T00:52:22.616Z,18.60
2019-05-20T00:54:51.652Z,17.23
2019-05-20T00:57:20.752Z,17.77
2019-05-20T00:59:49.755Z,21.47
2019-05-20T01:02:18.705Z,20.47
2019-05-20T01:04:47.702Z,19.83
2019-05-20T01:07:16.777Z,18.83
2019-05-20T01:09:45.877Z,19.67
2019-05-20T01:12:15.011Z,21.63
2019-05-20T01:14:44.022Z,21.87
2019-05-20T01:17:13.468Z,20.63
2019-05-20T01:19:42.513Z,20.03
2019-05-20T01:22:11.525Z,20.37
2019-05-20T01:24:40.504Z,20.77
2019-05-20T01:27:10.172Z,19.70
2019-05-20T01:29:39.051Z,20.17
2019-05-20T01:32:07.938Z,20.07
2019-05-20T01:34:37.477Z,18.87
2019-05-20T01:37:06.689Z,19.47
2019-05-20T01:39:35.702Z,21.30
2019-05-20T01:42:04.784Z,19.33
2019-05-20T01:44:33.835Z,19.37
2019-05-20T01:47:02.793Z,21.03
2019-05-20T01:49:31.682Z,20.80
2019-05-20T01:52:00.791Z,21.67
2019-05-20T01:54:29.840Z,22.30
2019-05-20T01:56:58.862Z,21.00
2019-05-20T01:59:27.811Z,23.27
2019-05-20T02:01:56.647Z,22.07
2019-05-20T02:04:25.607Z,22.47
2019-05-20T02:06:55.386Z,23.30
2019-05-20T02:09:24.223Z,22.70
2019-05-20T02:11:53.167Z,24.80
2019-05-20T02:14:24.139Z,27.10
2019-05-20T02:16:53.048Z,35.50
2019-05-20T02:19:21.846Z,40.00
2019-05-20T02:21:50.798Z,45.40
2019-05-20T02:24:19.711Z,45.40
2019-05-20T02:26:48.602Z,45.80
2019-05-20T02:29:17.630Z,46.63
2019-05-20T02:31:46.571Z,48.13
2019-05-20T02:34:15.860Z,48.97
2019-05-20T02:36:44.710Z,50.97
2019-05-20T02:39:13.672Z,52.10
2019-05-20T02:41:42.648Z,52.73
2019-05-20T02:44:11.515Z,50.13
2019-05-20T02:46:40.409Z,50.27
2019-05-20T02:49:09.423Z,48.23
2019-05-20T02:51:38.556Z,48.63
2019-05-20T02:54:07.498Z,48.30
2019-05-20T02:56:36.445Z,50.53
2019-05-20T02:59:05.583Z,51.80
2019-05-20T03:01:34.568Z,52.40
2019-05-20T03:04:11.547Z,53.33
2019-05-20T03:06:34.025Z,53.13
2019-05-20T03:09:03.882Z,53.43
2019-05-20T03:11:32.911Z,55.00
2019-05-20T03:14:01.857Z,52.77
2019-05-20T03:16:30.781Z,51.80
2019-05-20T03:18:59.702Z,52.37
2019-05-20T03:21:28.733Z,52.50
2019-05-20T03:23:57.686Z,55.00
2019-05-20T03:26:26.614Z,56.77
2019-05-20T03:28:55.506Z,55.17
2019-05-20T03:31:24.544Z,57.03
2019-05-20T03:33:53.645Z,56.23
2019-05-20T03:36:22.648Z,56.10
2019-05-20T03:38:51.581Z,57.13
2019-05-20T03:41:20.621Z,58.13
2019-05-20T03:43:49.478Z,55.60
2019-05-20T03:46:18.507Z,55.07
2019-05-20T03:48:47.351Z,57.63
2019-05-20T03:51:16.211Z,55.23
2019-05-20T03:53:45.232Z,56.30
2019-05-20T03:56:14.194Z,55.20
2019-05-20T03:58:43.255Z,54.33
2019-05-20T04:01:12.506Z,56.13
2019-05-20T04:03:41.449Z,56.37
2019-05-20T04:06:10.656Z,55.93
2019-05-20T04:08:39.711Z,55.67
2019-05-20T04:11:08.745Z,52.83
2019-05-20T04:13:37.833Z,52.60
2019-05-20T04:16:06.680Z,54.07
2019-05-20T04:18:35.758Z,55.33
2019-05-20T04:21:04.761Z,49.83
2019-05-20T04:23:33.793Z,50.00
2019-05-20T04:26:02.776Z,50.93
2019-05-20T04:28:32.033Z,49.83
2019-05-20T04:31:00.925Z,50.83
2019-05-20T04:33:30.028Z,48.33
2019-05-20T04:35:59.072Z,50.77
2019-05-20T04:38:27.951Z,48.87
2019-05-20T04:40:57.010Z,47.30
2019-05-20T04:43:25.929Z,47.83
2019-05-20T04:45:55.032Z,45.37
2019-05-20T04:48:24.104Z,45.27
2019-05-20T04:50:53.142Z,47.10
2019-05-20T04:53:22.087Z,42.80
2019-05-20T04:55:51.095Z,43.30
2019-05-20T04:58:19.917Z,43.40
2019-05-20T05:00:59.040Z,42.97
2019-05-20T05:03:28.056Z,44.80
2019-05-20T05:05:57.370Z,41.43
2019-05-20T05:08:26.291Z,43.50
2019-05-20T05:10:55.812Z,41.70
2019-05-20T05:13:24.824Z,46.93
2019-05-20T05:15:53.920Z,44.23
2019-05-20T05:18:22.910Z,45.13
2019-05-20T05:20:52.119Z,42.33
2019-05-20T05:23:22.165Z,44.30
2019-05-20T05:25:51.266Z,43.57
2019-05-20T05:28:20.318Z,42.53
2019-05-20T05:30:49.359Z,46.10
2019-05-20T05:33:18.396Z,42.20
2019-05-20T05:35:53.182Z,42.73
2019-05-20T05:38:18.035Z,42.53
2019-05-20T05:40:46.909Z,40.23
2019-05-20T05:43:15.872Z,41.40
2019-05-20T05:45:44.832Z,40.80
2019-05-20T05:48:13.808Z,39.97
2019-05-20T05:50:42.790Z,41.27
2019-05-20T05:53:11.629Z,39.23
2019-05-20T05:55:40.999Z,38.90
2019-05-20T05:58:09.965Z,40.03
2019-05-20T06:00:39.210Z,36.73
2019-05-20T06:03:09.711Z,38.60
2019-05-20T06:05:38.721Z,37.27
2019-05-20T06:08:07.719Z,37.27
2019-05-20T06:10:36.683Z,36.10
2019-05-20T06:13:05.852Z,36.57
2019-05-20T06:15:34.938Z,38.87
2019-05-20T06:18:03.853Z,37.73
2019-05-20T06:20:32.819Z,38.80
2019-05-20T06:23:01.810Z,38.33
2019-05-20T06:25:30.927Z,37.87
2019-05-20T06:27:59.923Z,36.23
2019-05-20T06:30:38.241Z,31.23
2019-05-20T06:33:07.107Z,32.80
2019-05-20T06:35:36.298Z,32.13
2019-05-20T06:38:07.784Z,31.27
2019-05-20T06:40:37.002Z,31.77
2019-05-20T06:43:05.934Z,31.13
2019-05-20T06:45:34.945Z,33.00
2019-05-20T06:48:03.930Z,34.50
2019-05-20T06:50:32.964Z,34.97
2019-05-20T06:53:02.152Z,34.57
2019-05-20T06:55:31.086Z,32.77
2019-05-20T06:58:00.083Z,33.30
2019-05-20T07:00:34.638Z,34.00
2019-05-20T07:03:04.195Z,36.77
2019-05-20T07:05:33.463Z,36.27
2019-05-20T07:08:02.495Z,36.33
2019-05-20T07:10:31.470Z,37.03
2019-05-20T07:13:00.728Z,36.80
2019-05-20T07:15:29.754Z,34.67
2019-05-20T07:17:58.638Z,35.10
2019-05-20T07:20:27.882Z,34.73
2019-05-20T07:22:57.258Z,34.90
2019-05-20T07:25:26.490Z,34.30
2019-05-20T07:27:55.326Z,35.23
2019-05-20T07:30:24.335Z,33.33
2019-05-20T07:32:53.582Z,35.47
2019-05-20T07:35:30.371Z,32.23
2019-05-20T07:37:53.325Z,33.37
2019-05-20T07:40:33.180Z,33.83
2019-05-20T07:43:03.716Z,33.43
2019-05-20T07:45:35.267Z,35.17
2019-05-20T07:48:05.665Z,33.20
2019-05-20T07:50:38.266Z,35.27
2019-05-20T07:53:08.396Z,35.57
2019-05-20T07:55:42.117Z,34.40
2019-05-20T07:58:12.865Z,33.47
2019-05-20T08:00:41.927Z,34.87
2019-05-20T08:03:10.901Z,34.83
2019-05-20T08:05:39.909Z,33.87
2019-05-20T08:08:08.799Z,33.40
2019-05-20T08:10:37.712Z,38.30
2019-05-20T08:13:06.829Z,36.67
2019-05-20T08:15:36.045Z,35.10
2019-05-20T08:18:05.150Z,35.53
2019-05-20T08:20:34.189Z,35.83
2019-05-20T08:23:03.106Z,33.57
2019-05-20T08:25:32.011Z,36.90
2019-05-20T08:28:01.022Z,34.90
2019-05-20T08:30:33.405Z,35.27
2019-05-20T08:33:02.542Z,35.07
2019-05-20T08:35:31.614Z,34.87
2019-05-20T08:38:00.545Z,34.83
2019-05-20T08:40:29.536Z,33.87
2019-05-20T08:42:58.837Z,35.17
2019-05-20T08:45:28.110Z,35.00
2019-05-20T08:47:57.174Z,34.53
2019-05-20T08:50:26.157Z,35.47
2019-05-20T08:52:55.164Z,35.70
2019-05-20T08:55:24.072Z,35.97
2019-05-20T08:57:52.924Z,34.57
2019-05-20T09:00:24.237Z,36.10
2019-05-20T09:02:53.726Z,32.70
2019-05-20T09:05:22.624Z,32.97
2019-05-20T09:08:02.136Z,33.27
2019-05-20T09:10:22.573Z,35.40
2019-05-20T09:12:51.556Z,33.87
2019-05-20T09:15:20.723Z,34.50
2019-05-20T09:17:49.641Z,36.03
2019-05-20T09:20:18.907Z,35.63
2019-05-20T09:22:47.954Z,34.50
2019-05-20T09:25:18.644Z,35.77
2019-05-20T09:27:47.676Z,40.33
2019-05-20T09:30:17.186Z,37.03
2019-05-20T09:32:46.662Z,38.50
2019-05-20T09:35:15.729Z,37.77
2019-05-20T09:37:44.682Z,37.87
2019-05-20T09:40:18.535Z,38.90
2019-05-20T09:42:47.475Z,35.87
2019-05-20T09:45:16.433Z,36.83
2019-05-20T09:47:45.339Z,35.17
2019-05-20T09:50:14.365Z,33.97
2019-05-20T09:52:43.578Z,34.13
2019-05-20T09:55:12.550Z,33.40
2019-05-20T09:57:41.465Z,33.80
2019-05-20T10:00:10.790Z,33.17
2019-05-20T10:02:39.822Z,31.57
2019-05-20T10:05:08.851Z,32.97
2019-05-20T10:07:37.880Z,33.50
2019-05-20T10:10:07.059Z,34.40
2019-05-20T10:12:45.954Z,35.50
2019-05-20T10:15:07.068Z,33.77
2019-05-20T10:17:36.156Z,34.47
2019-05-20T10:20:05.531Z,36.47
2019-05-20T10:22:34.843Z,36.37
2019-05-20T10:25:04.156Z,38.50
2019-05-20T10:27:33.187Z,40.00
2019-05-20T10:30:02.187Z,43.53
2019-05-20T10:32:31.107Z,44.07
2019-05-20T10:35:00.063Z,42.87
2019-05-20T10:37:29.076Z,41.43
2019-05-20T10:39:57.964Z,46.03
2019-05-20T10:42:27.029Z,41.80
2019-05-20T10:44:56.038Z,41.20
2019-05-20T10:47:24.886Z,42.93
2019-05-20T10:49:54.082Z,42.07
2019-05-20T10:52:23.105Z,41.43
2019-05-20T10:54:52.106Z,40.53
2019-05-20T10:57:21.031Z,40.03
2019-05-20T10:59:49.958Z,40.10
2019-05-20T11:02:18.822Z,39.63
2019-05-20T11:04:47.998Z,44.70
2019-05-20T11:07:16.998Z,44.23
2019-05-20T11:09:46.570Z,45.47
2019-05-20T11:12:15.531Z,42.93
2019-05-20T11:14:44.514Z,45.33
2019-05-20T11:17:15.182Z,48.20
2019-05-20T11:19:43.930Z,48.07
2019-05-20T11:22:12.950Z,49.30
2019-05-20T11:24:41.930Z,53.70
2019-05-20T11:27:10.746Z,52.47
2019-05-20T11:29:39.754Z,51.20
2019-05-20T11:32:08.773Z,50.23
2019-05-20T11:34:37.738Z,50.37
2019-05-20T11:37:06.899Z,50.77
2019-05-20T11:39:35.786Z,50.50
2019-05-20T11:42:04.804Z,45.23
2019-05-20T11:44:34.350Z,47.60
2019-05-20T11:47:03.352Z,49.47
2019-05-20T11:49:32.328Z,49.13
2019-05-20T11:52:01.313Z,53.87
2019-05-20T11:54:30.413Z,51.07
2019-05-20T11:56:59.742Z,50.10
2019-05-20T11:59:28.761Z,48.40
2019-05-20T12:01:57.592Z,46.67
2019-05-20T12:04:26.598Z,49.27
2019-05-20T12:06:55.707Z,45.27
2019-05-20T12:09:24.613Z,45.30
2019-05-20T12:11:53.422Z,44.20
2019-05-20T12:14:22.365Z,46.17
2019-05-20T12:16:51.269Z,45.57
2019-05-20T12:19:20.161Z,44.63
2019-05-20T12:21:49.041Z,44.17
2019-05-20T12:24:17.850Z,43.23
2019-05-20T12:26:46.841Z,43.80
2019-05-20T12:29:15.758Z,42.87
2019-05-20T12:31:44.771Z,43.17
2019-05-20T12:34:13.627Z,41.50
2019-05-20T12:36:42.605Z,43.87
2019-05-20T12:39:11.525Z,42.70
2019-05-20T12:41:40.932Z,42.30
2019-05-20T12:44:12.871Z,40.00
2019-05-20T12:46:40.475Z,39.90
2019-05-20T12:49:09.606Z,40.17
2019-05-20T12:51:38.486Z,38.33
2019-05-20T12:54:07.449Z,36.57
2019-05-20T12:56:36.382Z,39.90
2019-05-20T12:59:05.547Z,40.33
2019-05-20T13:01:34.581Z,40.53
2019-05-20T13:04:03.686Z,39.30
2019-05-20T13:06:32.798Z,39.10
2019-05-20T13:09:01.840Z,38.73
2019-05-20T13:11:31.188Z,39.27
2019-05-20T13:14:00.094Z,42.10
2019-05-20T13:16:29.040Z,38.93
2019-05-20T13:18:58.090Z,38.63
2019-05-20T13:21:27.011Z,40.13
2019-05-20T13:23:57.629Z,39.43
2019-05-20T13:26:27.003Z,38.20
2019-05-20T13:28:59.295Z,38.10
2019-05-20T13:31:26.813Z,36.47
2019-05-20T13:33:55.782Z,37.53
2019-05-20T13:36:24.770Z,35.30
2019-05-20T13:38:53.986Z,36.17
2019-05-20T13:41:22.894Z,38.20
2019-05-20T13:43:51.768Z,38.53
2019-05-20T13:46:20.757Z,38.43
2019-05-20T13:48:49.710Z,38.97
2019-05-20T13:51:18.682Z,40.70
2019-05-20T13:53:47.617Z,39.73
2019-05-20T13:56:16.570Z,41.37
2019-05-20T13:58:45.563Z,44.93
2019-05-20T14:01:14.431Z,46.00
2019-05-20T14:03:43.365Z,44.23
2019-05-20T14:06:12.443Z,45.33
2019-05-20T14:08:41.406Z,42.97
2019-05-20T14:11:10.236Z,40.67
2019-05-20T14:13:39.090Z,43.00
2019-05-20T14:16:08.026Z,42.50
2019-05-20T14:18:36.966Z,42.87
2019-05-20T14:21:05.943Z,44.30
2019-05-20T14:23:34.846Z,47.53
2019-05-20T14:26:04.086Z,46.83
2019-05-20T14:28:33.712Z,44.23
2019-05-20T14:31:05.918Z,45.80
2019-05-20T14:33:33.559Z,46.77
2019-05-20T14:36:02.409Z,46.63
2019-05-20T14:38:31.453Z,45.07
2019-05-20T14:41:00.377Z,44.67
2019-05-20T14:43:29.401Z,45.10
2019-05-20T14:45:58.394Z,44.23
2019-05-20T14:48:27.382Z,45.67
2019-05-20T14:50:56.268Z,42.77
2019-05-20T14:53:25.151Z,42.97
2019-05-20T14:55:54.117Z,42.40
2019-05-20T14:58:23.030Z,42.93
2019-05-20T15:00:52.059Z,42.63
2019-05-20T15:03:20.900Z,43.60
2019-05-20T15:05:50.106Z,42.47
2019-05-20T15:08:19.381Z,43.07
2019-05-20T15:10:48.408Z,44.53
2019-05-20T15:13:17.426Z,42.93
2019-05-20T15:15:48.579Z,41.17
2019-05-20T15:18:17.127Z,44.63
2019-05-20T15:20:46.093Z,46.60
2019-05-20T15:23:15.428Z,45.17
2019-05-20T15:25:44.651Z,44.53
2019-05-20T15:28:13.679Z,47.83
2019-05-20T15:30:42.595Z,45.47
2019-05-20T15:33:11.679Z,46.33
2019-05-20T15:35:40.607Z,45.93
2019-05-20T15:38:09.961Z,44.27
2019-05-20T15:40:38.864Z,42.87
2019-05-20T15:43:07.734Z,45.23
2019-05-20T15:45:36.717Z,45.57
2019-05-20T15:48:05.614Z,45.87
2019-05-20T15:50:34.703Z,45.47
2019-05-20T15:53:03.931Z,45.07
2019-05-20T15:55:33.038Z,45.37
2019-05-20T15:58:02.009Z,43.57
2019-05-20T16:00:31.165Z,45.27
2019-05-20T16:03:00.278Z,42.30
2019-05-20T16:05:29.236Z,41.57
2019-05-20T16:07:58.172Z,40.57
2019-05-20T16:10:27.140Z,42.13
2019-05-20T16:12:56.075Z,41.10
2019-05-20T16:15:25.022Z,39.33
2019-05-20T16:17:53.920Z,40.60
2019-05-20T16:20:22.991Z,39.73
2019-05-20T16:22:51.898Z,43.77
2019-05-20T16:25:20.923Z,40.97
2019-05-20T16:27:49.873Z,43.33
2019-05-20T16:30:19.055Z,41.60
2019-05-20T16:32:48.382Z,51.40
2019-05-20T16:35:17.468Z,61.30
2019-05-20T16:37:46.299Z,47.47
2019-05-20T16:40:15.814Z,42.77
2019-05-20T16:42:44.901Z,47.63
2019-05-20T16:45:14.550Z,44.53
2019-05-20T16:47:43.426Z,43.23
2019-05-20T16:50:14.233Z,41.50
2019-05-20T16:52:43.365Z,41.03
2019-05-20T16:55:12.447Z,39.87
2019-05-20T16:57:41.327Z,40.20
2019-05-20T17:00:29.871Z,39.33
2019-05-20T17:02:42.314Z,40.87
2019-05-20T17:05:11.370Z,39.63
2019-05-20T17:07:40.301Z,37.87
2019-05-20T17:10:09.828Z,37.97
2019-05-20T17:12:38.934Z,36.50
2019-05-20T17:15:08.540Z,35.60
2019-05-20T17:17:37.693Z,34.27
2019-05-20T17:20:07.045Z,36.10
2019-05-20T17:22:36.131Z,34.00
2019-05-20T17:25:05.386Z,33.43
2019-05-20T17:27:34.353Z,32.33
2019-05-20T17:30:04.487Z,32.47
2019-05-20T17:32:33.985Z,34.27
2019-05-20T17:35:02.896Z,33.60
2019-05-20T17:37:31.951Z,33.43
2019-05-20T17:40:01.021Z,33.40
2019-05-20T17:42:30.076Z,29.10
2019-05-20T17:44:59.083Z,28.90
2019-05-20T17:47:28.038Z,27.80
2019-05-20T17:49:57.006Z,27.73
2019-05-20T17:52:26.157Z,29.17
2019-05-20T17:54:55.258Z,29.03
2019-05-20T17:57:24.277Z,25.13
2019-05-20T17:59:53.418Z,26.13
2019-05-20T18:02:22.238Z,25.90
2019-05-20T18:04:51.242Z,26.13
2019-05-20T18:07:20.163Z,25.40
2019-05-20T18:09:50.819Z,27.77
2019-05-20T18:12:19.980Z,27.37
2019-05-20T18:14:52.478Z,27.40
2019-05-20T18:17:21.459Z,25.70
2019-05-20T18:19:50.411Z,26.40
2019-05-20T18:22:19.500Z,24.70
2019-05-20T18:24:48.715Z,25.60
2019-05-20T18:27:17.724Z,26.03
2019-05-20T18:29:46.750Z,26.00
2019-05-20T18:32:15.679Z,26.27
2019-05-20T18:34:44.722Z,25.27
2019-05-20T18:37:13.645Z,26.73
2019-05-20T18:39:42.539Z,27.83
2019-05-20T18:42:11.494Z,27.73
2019-05-20T18:44:40.458Z,26.60
2019-05-20T18:47:09.482Z,26.77
2019-05-20T18:49:41.249Z,26.10
2019-05-20T18:52:09.230Z,25.83
2019-05-20T18:54:38.111Z,28.07
2019-05-20T18:57:06.989Z,26.50
2019-05-20T18:59:37.178Z,27.27
2019-05-20T19:02:06.685Z,26.10
2019-05-20T19:04:35.677Z,27.07
2019-05-20T19:07:04.633Z,28.60
2019-05-20T19:09:33.466Z,31.07
2019-05-20T19:12:02.430Z,29.73
2019-05-20T19:14:31.646Z,29.40
2019-05-20T19:17:00.683Z,28.43
2019-05-20T19:19:29.771Z,28.50
2019-05-20T19:21:58.806Z,29.13
2019-05-20T19:24:27.842Z,29.73
2019-05-20T19:26:56.891Z,30.53
2019-05-20T19:29:25.822Z,31.57
2019-05-20T19:32:02.023Z,31.73
2019-05-20T19:34:25.652Z,32.17
2019-05-20T19:36:54.603Z,32.30
2019-05-20T19:39:23.701Z,29.87
2019-05-20T19:41:52.752Z,32.03
2019-05-20T19:44:21.859Z,33.60
2019-05-20T19:46:50.770Z,34.20
2019-05-20T19:49:19.862Z,33.43
2019-05-20T19:51:48.807Z,34.37
2019-05-20T19:54:17.986Z,32.40
2019-05-20T19:56:47.254Z,32.57
2019-05-20T19:59:16.319Z,32.27
2019-05-20T20:01:45.328Z,31.23
2019-05-20T20:04:14.712Z,32.20
2019-05-20T20:06:43.747Z,30.43
2019-05-20T20:09:12.777Z,31.30
2019-05-20T20:11:41.886Z,31.33
2019-05-20T20:14:10.847Z,32.90
2019-05-20T20:16:39.717Z,32.97
2019-05-20T20:19:08.668Z,33.63
2019-05-20T20:21:37.632Z,31.87
2019-05-20T20:24:09.357Z,35.73
2019-05-20T20:26:37.537Z,38.23
2019-05-20T20:29:06.575Z,39.07
2019-05-20T20:31:35.719Z,36.43
2019-05-20T20:34:04.874Z,37.30
2019-05-20T20:36:34.140Z,39.30
2019-05-20T20:39:03.581Z,40.70
2019-05-20T20:41:32.647Z,41.73
2019-05-20T20:44:01.732Z,42.00
2019-05-20T20:46:31.143Z,44.00
2019-05-20T20:49:00.426Z,42.37
2019-05-20T20:51:29.534Z,45.77
2019-05-20T20:53:58.417Z,46.03
2019-05-20T20:56:27.338Z,46.60
2019-05-20T20:58:56.351Z,45.53
2019-05-20T21:01:25.504Z,48.20
2019-05-20T21:03:54.502Z,47.40
2019-05-20T21:06:23.554Z,48.20
2019-05-20T21:08:52.462Z,47.90
2019-05-20T21:11:21.788Z,47.20
2019-05-20T21:13:50.800Z,48.17
2019-05-20T21:16:19.707Z,47.30
2019-05-20T21:18:48.575Z,46.70
2019-05-20T21:21:17.519Z,45.13
2019-05-20T21:23:46.350Z,47.10
2019-05-20T21:26:15.426Z,48.40
2019-05-20T21:28:44.467Z,48.30
2019-05-20T21:31:13.947Z,47.23
2019-05-20T21:33:42.953Z,46.93
2019-05-20T21:36:12.335Z,43.13
2019-05-20T21:38:41.265Z,43.33
2019-05-20T21:41:10.274Z,43.60
2019-05-20T21:43:39.372Z,40.57
2019-05-20T21:46:08.367Z,44.77
2019-05-20T21:48:37.295Z,40.33
2019-05-20T21:51:06.259Z,44.73
2019-05-20T21:53:35.245Z,43.20
2019-05-20T21:56:04.256Z,43.33
2019-05-20T21:58:33.243Z,44.80
2019-05-20T22:01:02.454Z,42.50
2019-05-20T22:03:50.591Z,42.20
2019-05-20T22:06:19.882Z,41.50
2019-05-20T22:08:48.967Z,39.43
2019-05-20T22:11:18.149Z,41.13
2019-05-20T22:13:47.115Z,43.37
2019-05-20T22:16:16.226Z,42.30
2019-05-20T22:18:45.347Z,40.73
2019-05-20T22:21:16.073Z,42.83
2019-05-20T22:23:50.194Z,43.20
2019-05-20T22:26:19.336Z,41.07
2019-05-20T22:28:48.377Z,44.50
2019-05-20T22:31:17.553Z,40.20
2019-05-20T22:33:46.583Z,42.07
2019-05-20T22:36:15.662Z,45.53
2019-05-20T22:38:44.743Z,45.67
2019-05-20T22:41:13.883Z,48.70
2019-05-20T22:43:42.899Z,49.30
2019-05-20T22:46:12.333Z,48.13
2019-05-20T22:48:41.414Z,47.27
2019-05-20T22:51:10.517Z,48.30
2019-05-20T22:53:39.595Z,45.03
2019-05-20T22:56:08.615Z,48.10
2019-05-20T22:58:38.700Z,46.33
2019-05-20T23:01:07.900Z,46.10
2019-05-20T23:03:36.973Z,45.33
2019-05-20T23:06:06.102Z,41.87
2019-05-20T23:08:35.048Z,43.03
2019-05-20T23:11:04.054Z,44.47
2019-05-20T23:13:33.028Z,43.37
2019-05-20T23:16:02.114Z,42.87
2019-05-20T23:18:31.123Z,42.40
2019-05-20T23:21:00.039Z,45.77
2019-05-20T23:23:28.896Z,42.27
2019-05-20T23:25:57.878Z,44.60
2019-05-20T23:28:27.568Z,43.40
2019-05-20T23:30:56.540Z,47.30
2019-05-20T23:33:25.640Z,46.73
2019-05-20T23:35:55.060Z,48.90
2019-05-20T23:38:24.116Z,50.13
2019-05-20T23:40:53.083Z,49.87
2019-05-20T23:43:22.212Z,52.80
2019-05-20T23:45:51.229Z,51.30
2019-05-20T23:48:20.334Z,51.13
2019-05-20T23:50:49.563Z,52.10
2019-05-20T23:53:18.530Z,54.57
2019-05-20T23:55:47.544Z,49.43
2019-05-20T23:58:16.537Z,45.27
